createdAt,value
2023-05-03T00:03:26.202Z,16.36
2023-05-03T00:07:46.470Z,16.39
2023-05-03T00:12:02.902Z,16.36
2023-05-03T00:16:20.822Z,16.46
2023-05-03T00:20:37.652Z,16.38
2023-05-03T00:24:54.009Z,16.24
2023-05-03T00:29:10.211Z,16.47
2023-05-03T00:33:26.513Z,16.17
2023-05-03T00:37:42.831Z,16.42
2023-05-03T00:42:00.277Z,16.03
2023-05-03T00:46:17.765Z,15.93
2023-05-03T00:50:34.313Z,15.95
2023-05-03T00:54:50.984Z,15.91
2023-05-03T00:59:07.454Z,15.65
2023-05-03T01:03:24.188Z,15.97
2023-05-03T01:08:13.493Z,15.83
2023-05-03T01:12:42.961Z,15.74
2023-05-03T01:17:05.711Z,15.72
2023-05-03T01:21:23.014Z,15.91
2023-05-03T01:25:39.398Z,15.82
2023-05-03T01:29:55.737Z,15.96
2023-05-03T01:34:48.997Z,15.95
2023-05-03T01:39:10.199Z,16.18
2023-05-03T01:43:27.583Z,16.00
2023-05-03T01:47:43.996Z,16.12
2023-05-03T01:52:00.307Z,16.08
2023-05-03T01:56:16.498Z,16.07
2023-05-03T02:00:33.092Z,16.14
2023-05-03T02:04:49.790Z,16.09
2023-05-03T02:09:06.102Z,16.10
2023-05-03T02:13:22.419Z,16.02
2023-05-03T02:17:39.116Z,15.68
2023-05-03T02:21:55.334Z,15.81
2023-05-03T02:26:11.626Z,16.00
2023-05-03T02:30:28.071Z,15.92
2023-05-03T02:34:47.578Z,15.71
2023-05-03T02:39:03.902Z,16.11
2023-05-03T02:43:20.160Z,16.20
2023-05-03T02:47:36.398Z,16.02
2023-05-03T02:51:53.301Z,15.97
2023-05-03T02:56:10.113Z,15.87
2023-05-03T03:00:26.347Z,15.86
2023-05-03T03:04:42.690Z,16.00
2023-05-03T03:08:58.910Z,16.00
2023-05-03T03:13:17.991Z,16.06
2023-05-03T03:17:34.210Z,15.87
2023-05-03T03:21:51.140Z,15.86
2023-05-03T03:26:07.442Z,15.92
2023-05-03T03:30:23.658Z,16.02
2023-05-03T03:34:39.920Z,15.93
2023-05-03T03:38:56.178Z,16.05
2023-05-03T03:43:12.460Z,16.13
2023-05-03T03:47:28.758Z,16.08
2023-05-03T03:51:45.047Z,16.07
2023-05-03T03:56:01.344Z,16.03
2023-05-03T04:00:17.985Z,15.95
2023-05-03T04:04:34.311Z,16.17
2023-05-03T04:08:50.715Z,16.09
2023-05-03T04:13:07.266Z,16.12
2023-05-03T04:17:23.498Z,16.09
2023-05-03T04:21:39.885Z,16.14
2023-05-03T04:25:57.422Z,16.23
2023-05-03T04:30:15.337Z,16.02
2023-05-03T04:34:31.888Z,15.93
2023-05-03T04:38:48.090Z,16.05
2023-05-03T04:43:04.358Z,16.11
2023-05-03T04:47:20.643Z,15.96
2023-05-03T04:51:36.856Z,16.18
2023-05-03T04:55:53.170Z,15.99
2023-05-03T05:00:12.770Z,16.22
2023-05-03T05:04:29.057Z,16.18
2023-05-03T05:08:45.316Z,16.12
2023-05-03T05:13:01.691Z,16.34
2023-05-03T05:17:18.119Z,16.26
2023-05-03T05:21:34.572Z,16.28
2023-05-03T05:25:51.034Z,16.23
2023-05-03T05:30:07.969Z,16.26
2023-05-03T05:34:24.258Z,16.30
2023-05-03T05:38:41.030Z,16.47
2023-05-03T05:42:57.577Z,16.44
2023-05-03T05:47:13.937Z,16.56
2023-05-03T05:51:31.962Z,16.08
2023-05-03T05:55:48.197Z,16.45
2023-05-03T06:00:10.039Z,16.59
2023-05-03T06:04:27.181Z,16.38
2023-05-03T06:08:43.405Z,16.61
2023-05-03T06:12:59.702Z,16.63
2023-05-03T06:17:16.345Z,16.70
2023-05-03T06:21:32.820Z,16.68
2023-05-03T06:25:49.242Z,17.12
2023-05-03T06:30:06.752Z,16.82
2023-05-03T06:34:23.133Z,16.40
2023-05-03T06:38:39.276Z,16.66
2023-05-03T06:42:55.703Z,16.88
2023-05-03T06:47:11.944Z,16.64
2023-05-03T06:51:29.877Z,16.57
2023-05-03T06:55:46.509Z,16.73
2023-05-03T07:00:07.472Z,16.59
2023-05-03T07:04:23.740Z,16.83
2023-05-03T07:08:39.963Z,16.88
2023-05-03T07:12:56.412Z,17.12
2023-05-03T07:17:12.692Z,17.15
2023-05-03T07:21:29.739Z,17.30
2023-05-03T07:25:46.261Z,17.40
2023-05-03T07:30:04.105Z,17.45
2023-05-03T07:34:20.840Z,17.48
2023-05-03T07:38:37.515Z,17.63
2023-05-03T07:42:53.710Z,17.62
2023-05-03T07:47:09.970Z,17.77
2023-05-03T07:51:27.212Z,17.79
2023-05-03T07:55:43.569Z,17.67
2023-05-03T08:00:00.007Z,17.52
2023-05-03T08:04:16.443Z,17.61
2023-05-03T08:08:34.156Z,17.69
2023-05-03T08:12:50.737Z,17.62
2023-05-03T08:17:06.920Z,17.81
2023-05-03T08:21:25.092Z,17.69
2023-05-03T08:25:41.308Z,18.18
2023-05-03T08:34:18.352Z,18.49
2023-05-03T08:38:35.233Z,18.58
2023-05-03T08:42:51.780Z,18.65
2023-05-03T08:47:08.334Z,18.66
2023-05-03T08:51:25.228Z,18.97
2023-05-03T08:55:41.928Z,18.84
2023-05-03T09:00:01.866Z,18.97
2023-05-03T09:04:18.537Z,18.86
2023-05-03T09:08:44.011Z,19.30
2023-05-03T09:13:02.067Z,19.21
2023-05-03T09:17:21.719Z,19.30
2023-05-03T09:21:45.430Z,19.55
2023-05-03T09:26:01.926Z,18.83
2023-05-03T09:30:19.696Z,18.53
2023-05-03T09:34:37.316Z,18.91
2023-05-03T09:38:53.983Z,18.88
2023-05-03T09:43:12.013Z,18.52
2023-05-03T09:47:32.005Z,17.96
2023-05-03T09:51:48.564Z,17.84
2023-05-03T09:56:10.221Z,17.77
2023-05-03T10:00:26.651Z,18.08
2023-05-03T10:04:48.423Z,17.93
2023-05-03T10:09:21.811Z,18.21
2023-05-03T10:13:37.944Z,18.10
2023-05-03T10:17:54.373Z,18.33
2023-05-03T10:22:11.808Z,19.20
2023-05-03T10:26:28.355Z,18.71
2023-05-03T10:30:44.801Z,19.47
2023-05-03T10:35:04.194Z,18.95
2023-05-03T10:39:21.612Z,19.02
2023-05-03T10:43:37.845Z,19.22
2023-05-03T10:48:26.779Z,19.02
2023-05-03T10:52:42.954Z,18.89
2023-05-03T10:57:00.183Z,18.75
2023-05-03T11:01:18.011Z,18.54
2023-05-03T11:05:34.305Z,19.05
2023-05-03T11:09:50.721Z,18.37
2023-05-03T11:14:08.584Z,18.95
2023-05-03T11:18:29.179Z,19.21
2023-05-03T11:22:46.508Z,19.32
2023-05-03T11:27:08.488Z,19.02
2023-05-03T11:31:25.254Z,19.51
2023-05-03T11:35:42.561Z,19.38
2023-05-03T11:39:59.309Z,19.04
2023-05-03T11:44:18.280Z,18.86
2023-05-03T11:48:35.187Z,18.74
2023-05-03T11:52:51.808Z,18.43
2023-05-03T11:57:14.908Z,18.57
2023-05-03T12:01:31.846Z,18.42
2023-05-03T12:05:49.835Z,18.97
2023-05-03T12:10:23.830Z,19.19
2023-05-03T12:15:03.720Z,19.23
2023-05-03T12:19:33.195Z,18.86
2023-05-03T12:23:54.269Z,18.22
2023-05-03T12:32:31.196Z,18.07
2023-05-03T12:36:49.129Z,18.48
2023-05-03T12:41:08.804Z,19.13
2023-05-03T12:45:33.812Z,19.60
2023-05-03T12:49:52.388Z,19.36
2023-05-03T12:54:11.910Z,19.70
2023-05-03T13:07:12.615Z,19.18
2023-05-03T13:11:31.434Z,19.20
2023-05-03T13:15:47.722Z,19.43
2023-05-03T13:20:07.492Z,19.76
2023-05-03T13:24:23.815Z,19.74
2023-05-03T13:28:42.940Z,19.70
2023-05-03T13:33:02.351Z,19.10
2023-05-03T13:37:19.455Z,19.58
2023-05-03T13:41:36.817Z,18.96
2023-05-03T13:46:00.165Z,18.88
2023-05-03T13:50:16.700Z,18.84
2023-05-03T13:54:33.083Z,19.12
2023-05-03T13:58:49.212Z,19.08
2023-05-03T14:03:06.812Z,18.29
2023-05-03T14:07:23.120Z,18.49
2023-05-03T14:11:41.179Z,18.72
2023-05-03T14:15:57.582Z,19.00
2023-05-03T14:20:17.646Z,18.66
2023-05-03T14:24:34.132Z,18.61
2023-05-03T14:28:50.412Z,18.53
2023-05-03T14:33:06.691Z,18.12
2023-05-03T14:37:23.164Z,18.55
2023-05-03T14:41:39.356Z,18.91
2023-05-03T14:45:55.998Z,18.87
2023-05-03T14:50:12.231Z,18.88
2023-05-03T14:54:28.610Z,19.13
2023-05-03T14:58:44.898Z,19.23
2023-05-03T15:03:01.182Z,19.51
2023-05-03T15:07:17.368Z,19.91
2023-05-03T15:11:33.712Z,19.49
2023-05-03T15:15:50.041Z,19.83
2023-05-03T15:20:07.622Z,20.00
2023-05-03T15:24:23.967Z,19.80
2023-05-03T15:28:40.218Z,19.89
2023-05-03T15:32:56.597Z,19.58
2023-05-03T15:37:13.350Z,19.48
2023-05-03T15:41:29.963Z,19.10
2023-05-03T15:45:46.321Z,19.41
2023-05-03T15:50:03.219Z,19.13
2023-05-03T15:54:19.899Z,19.26
2023-05-03T15:58:36.953Z,19.07
2023-05-03T16:02:53.441Z,19.12
2023-05-03T16:07:09.890Z,19.20
2023-05-03T16:11:26.085Z,19.10
2023-05-03T16:15:42.521Z,19.04
2023-05-03T16:19:58.827Z,18.84
2023-05-03T16:24:15.236Z,18.69
2023-05-03T16:28:31.435Z,18.68
2023-05-03T16:32:48.489Z,18.56
2023-05-03T16:37:05.469Z,18.46
2023-05-03T16:41:21.784Z,18.57
2023-05-03T16:45:38.084Z,18.12
2023-05-03T16:49:54.466Z,18.36
2023-05-03T16:54:12.144Z,18.52
2023-05-03T16:58:28.372Z,17.98
2023-05-03T17:02:44.832Z,18.41
2023-05-03T17:07:01.294Z,18.48
2023-05-03T17:11:17.483Z,18.55
2023-05-03T17:15:33.976Z,18.35
2023-05-03T17:19:50.293Z,18.47
2023-05-03T17:24:06.895Z,18.38
2023-05-03T17:28:23.248Z,18.38
2023-05-03T17:32:39.477Z,18.18
2023-05-03T17:36:59.261Z,18.39
2023-05-03T17:41:15.502Z,18.47
2023-05-03T17:45:31.749Z,18.21
2023-05-03T17:49:48.037Z,18.24
2023-05-03T17:54:04.385Z,18.21
2023-05-03T17:58:21.131Z,18.25
2023-05-03T18:02:37.457Z,18.17
2023-05-03T18:06:54.414Z,18.12
2023-05-03T18:11:10.660Z,17.95
2023-05-03T18:15:26.907Z,17.77
2023-05-03T18:19:46.169Z,17.96
2023-05-03T18:24:03.031Z,17.47
2023-05-03T18:28:21.160Z,17.54
2023-05-03T18:32:37.756Z,17.62
2023-05-03T18:36:54.146Z,17.33
2023-05-03T18:41:16.063Z,17.37
2023-05-03T18:45:32.333Z,17.38
2023-05-03T18:49:52.946Z,16.59
2023-05-03T18:54:10.177Z,17.10
2023-05-03T18:58:26.466Z,17.10
2023-05-03T19:02:42.738Z,17.03
2023-05-03T19:06:58.978Z,16.66
2023-05-03T19:11:16.190Z,16.72
2023-05-03T19:15:32.505Z,16.85
2023-05-03T19:19:48.694Z,17.06
2023-05-03T19:24:05.208Z,16.87
2023-05-03T19:28:22.564Z,16.85
2023-05-03T19:32:39.315Z,16.72
2023-05-03T19:36:55.789Z,16.45
2023-05-03T19:41:14.580Z,16.37
2023-05-03T19:45:30.953Z,16.23
2023-05-03T19:49:47.203Z,16.49
2023-05-03T19:54:03.698Z,16.56
2023-05-03T19:58:19.918Z,16.65
2023-05-03T20:02:38.146Z,16.48
2023-05-03T20:06:54.482Z,16.41
2023-05-03T20:11:10.861Z,16.48
2023-05-03T20:15:27.059Z,16.48
2023-05-03T20:19:43.994Z,16.56
2023-05-03T20:24:00.398Z,16.49
2023-05-03T20:28:16.690Z,16.42
2023-05-03T20:32:33.085Z,16.56
2023-05-03T20:36:49.430Z,16.68
2023-05-03T20:41:05.702Z,16.40
2023-05-03T20:45:22.450Z,16.60
2023-05-03T20:49:40.434Z,16.53
2023-05-03T20:53:56.749Z,16.29
2023-05-03T20:58:13.005Z,16.23
2023-05-03T21:02:29.466Z,16.19
2023-05-03T21:06:45.855Z,16.18
2023-05-03T21:11:02.419Z,16.14
2023-05-03T21:15:18.757Z,16.22
2023-05-03T21:19:35.010Z,16.24
2023-05-03T21:23:51.511Z,16.18
2023-05-03T21:28:07.774Z,16.32
2023-05-03T21:32:24.066Z,16.13
2023-05-03T21:36:40.543Z,16.00
2023-05-03T21:41:09.376Z,15.83
2023-05-03T21:45:25.648Z,15.84
2023-05-03T21:49:41.816Z,15.84
2023-05-03T21:53:58.079Z,15.89
2023-05-03T21:58:14.876Z,15.94
2023-05-03T22:02:31.237Z,16.01
2023-05-03T22:06:47.905Z,15.92
2023-05-03T22:11:07.398Z,16.03
2023-05-03T22:15:23.810Z,15.94
2023-05-03T22:19:40.208Z,15.92
2023-05-03T22:23:56.448Z,15.85
2023-05-03T22:28:12.896Z,15.84
2023-05-03T22:32:29.288Z,15.73
2023-05-03T22:36:45.732Z,15.75
2023-05-03T22:41:02.084Z,15.90
2023-05-03T22:45:18.634Z,15.79
2023-05-03T22:49:34.872Z,15.63
2023-05-03T22:53:51.138Z,15.72
2023-05-03T22:58:07.495Z,15.64
2023-05-03T23:02:23.821Z,15.52
2023-05-03T23:06:40.144Z,15.74
2023-05-03T23:10:59.467Z,15.71
2023-05-03T23:15:16.660Z,15.57
2023-05-03T23:19:34.004Z,15.32
2023-05-03T23:23:50.302Z,15.38
2023-05-03T23:28:06.657Z,15.37
2023-05-03T23:32:23.721Z,15.35
2023-05-03T23:36:40.774Z,15.39
2023-05-03T23:40:56.997Z,15.44
2023-05-03T23:45:13.377Z,15.30
2023-05-03T23:49:29.560Z,15.39
2023-05-03T23:53:46.022Z,15.46
2023-05-03T23:58:02.434Z,15.29
